Time;durP1;ratioP1;P1;durP2;ratioP2;P2;SDS_P1;SDS_P2;PMS_P1;PMS_P2;Temp;Humidity;BMP_temperature;BMP_pressure;BME280_temperature;BME280_humidity;BME280_pressure;Samples;Min_cycle;Max_cycle;Signal;HPM_P1;HPM_P2
2023/04/04 00:01:12;;;;;;;;;;;18.60;40.50;;;;;;5006757;28;19943;-73
2023/04/04 00:03:37;;;;;;;;;;;18.60;40.40;;;;;;5011112;28;19921;-73
2023/04/04 00:06:03;;;;;;;;;;;18.50;40.40;;;;;;5011618;28;20267;-74
2023/04/04 00:08:28;;;;;;;;;;;18.50;40.40;;;;;;5010126;28;19985;-74
2023/04/04 00:10:58;;;;;;;;;;;18.50;40.70;;;;;;4995587;28;20016;-73
2023/04/04 00:13:25;;;;;;;;;;;18.40;40.40;;;;;;4986932;28;19925;-74
2023/04/04 00:15:50;;;;;;;;;;;18.40;40.30;;;;;;4996668;28;19917;-74
2023/04/04 00:18:16;;;;;;;;;;;18.40;40.40;;;;;;5001931;28;20122;-74
2023/04/04 00:20:41;;;;;;;;;;;18.40;40.50;;;;;;5004414;28;19914;-73
2023/04/04 00:23:09;;;;;;;;;;;18.40;40.40;;;;;;5006332;28;19914;-74
2023/04/04 00:25:35;;;;;;;;;;;18.30;40.30;;;;;;5001808;28;19956;-74
2023/04/04 00:28:01;;;;;;;;;;;18.30;40.30;;;;;;5007216;28;20413;-74
2023/04/04 00:30:26;;;;;;;;;;;18.30;40.20;;;;;;5017325;28;20008;-74
2023/04/04 00:32:52;;;;;;;;;;;18.30;40.30;;;;;;5026315;28;19920;-74
2023/04/04 00:35:17;;;;;;;;;;;18.30;40.20;;;;;;5008349;28;19913;-74
2023/04/04 00:37:43;;;;;;;;;;;18.20;40.10;;;;;;5017630;28;19917;-74
2023/04/04 00:40:08;;;;;;;;;;;18.20;40.30;;;;;;5021529;28;19960;-74
2023/04/04 00:42:34;;;;;;;;;;;18.20;40.30;;;;;;5007953;28;20480;-74
2023/04/04 00:44:59;;;;;;;;;;;18.20;40.30;;;;;;5007453;28;20004;-74
2023/04/04 00:47:25;;;;;;;;;;;18.10;40.30;;;;;;5005072;28;19909;-74
2023/04/04 00:49:51;;;;;;;;;;;18.10;40.40;;;;;;5011272;28;19918;-73
2023/04/04 00:52:16;;;;;;;;;;;18.10;40.30;;;;;;5018249;28;19913;-73
2023/04/04 00:54:42;;;;;;;;;;;18.10;40.50;;;;;;5009757;28;19913;-73
2023/04/04 00:57:07;;;;;;;;;;;18.10;40.40;;;;;;5012984;28;19996;-73
2023/04/04 00:59:33;;;;;;;;;;;18.00;40.20;;;;;;5009348;28;20051;-73
2023/04/04 01:01:59;;;;;;;;;;;18.00;40.20;;;;;;5004918;28;19917;-73
2023/04/04 01:04:25;;;;;;;;;;;18.00;40.20;;;;;;5012146;28;20020;-73
2023/04/04 01:06:51;;;;;;;;;;;18.00;40.30;;;;;;5004651;28;20259;-73
2023/04/04 01:09:17;;;;;;;;;;;18.00;40.30;;;;;;5008806;28;19928;-73
2023/04/04 01:11:42;;;;;;;;;;;18.00;40.30;;;;;;5004168;28;19936;-73
2023/04/04 01:14:08;;;;;;;;;;;18.00;40.20;;;;;;5006614;28;19943;-74
2023/04/04 01:16:35;;;;;;;;;;;18.00;40.60;;;;;;5005247;28;19936;-73
2023/04/04 01:19:00;;;;;;;;;;;18.10;41.60;;;;;;5010426;28;19976;-73
2023/04/04 01:21:25;;;;;;;;;;;18.40;41.00;;;;;;4998653;28;19913;-73
2023/04/04 01:23:58;;;;;;;;;;;18.70;40.90;;;;;;5016178;28;20442;-73
2023/04/04 01:26:25;;;;;;;;;;;18.90;40.40;;;;;;5024399;28;19913;-73
2023/04/04 01:28:51;;;;;;;;;;;19.30;39.80;;;;;;5017435;28;19920;-73
2023/04/04 01:31:20;;;;;;;;;;;19.70;39.20;;;;;;5021192;28;20294;-73
2023/04/04 01:33:54;;;;;;;;;;;20.10;38.50;;;;;;4997996;28;20000;-73
2023/04/04 01:36:25;;;;;;;;;;;20.60;37.70;;;;;;5008067;28;19918;-74
2023/04/04 01:38:58;;;;;;;;;;;21.00;37.10;;;;;;5008461;28;19918;-73
2023/04/04 01:41:23;;;;;;;;;;;21.20;36.60;;;;;;5006124;28;20401;-73
2023/04/04 01:43:49;;;;;;;;;;;21.30;36.60;;;;;;5006227;28;19918;-73
2023/04/04 01:46:18;;;;;;;;;;;21.20;36.70;;;;;;5018074;28;19920;-74
2023/04/04 01:48:46;;;;;;;;;;;21.10;36.90;;;;;;4996397;28;19921;-74
2023/04/04 01:51:12;;;;;;;;;;;20.90;37.20;;;;;;5017570;28;19917;-74
2023/04/04 01:53:37;;;;;;;;;;;20.70;37.50;;;;;;5007024;28;20026;-74
2023/04/04 01:56:03;;;;;;;;;;;20.50;37.90;;;;;;5009322;28;19917;-74
2023/04/04 01:58:29;;;;;;;;;;;20.30;38.20;;;;;;4993058;28;20499;-74
2023/04/04 02:00:55;;;;;;;;;;;20.20;38.60;;;;;;4998294;28;19921;-73
2023/04/04 02:03:20;;;;;;;;;;;20.00;38.80;;;;;;5016641;27;19945;-74
2023/04/04 02:05:45;;;;;;;;;;;19.90;39.00;;;;;;5000806;28;19934;-74
2023/04/04 02:08:12;;;;;;;;;;;19.80;39.00;;;;;;5004235;28;19970;-73
2023/04/04 02:10:37;;;;;;;;;;;19.70;39.10;;;;;;5005083;28;20036;-73
2023/04/04 02:13:03;;;;;;;;;;;19.70;38.70;;;;;;5010699;28;20021;-73
2023/04/04 02:15:28;;;;;;;;;;;19.60;38.30;;;;;;5006095;28;19948;-74
2023/04/04 02:17:53;;;;;;;;;;;19.50;38.30;;;;;;5010868;28;19917;-74
2023/04/04 02:20:19;;;;;;;;;;;19.50;38.40;;;;;;5011468;28;19928;-74
2023/04/04 02:22:52;;;;;;;;;;;19.50;38.30;;;;;;5013870;28;19936;-74
2023/04/04 02:25:18;;;;;;;;;;;19.50;38.10;;;;;;5004460;28;19956;-73
2023/04/04 02:27:43;;;;;;;;;;;19.70;38.00;;;;;;5011721;28;20448;-73
2023/04/04 02:30:09;;;;;;;;;;;19.60;38.20;;;;;;5026341;28;20421;-73
2023/04/04 02:32:35;;;;;;;;;;;19.50;38.30;;;;;;5021268;28;20009;-74
2023/04/04 02:35:00;;;;;;;;;;;19.50;38.40;;;;;;5029674;28;19978;-74
2023/04/04 02:37:26;;;;;;;;;;;19.50;38.30;;;;;;5014320;28;19917;-74
2023/04/04 02:39:51;;;;;;;;;;;19.40;38.40;;;;;;5029260;28;20052;-74
2023/04/04 02:42:16;;;;;;;;;;;19.40;38.50;;;;;;5023284;28;20382;-73
2023/04/04 02:44:42;;;;;;;;;;;19.30;38.50;;;;;;5009464;28;20382;-74
2023/04/04 02:47:07;;;;;;;;;;;19.30;38.90;;;;;;5010193;28;19940;-74
2023/04/04 02:49:33;;;;;;;;;;;19.20;38.80;;;;;;5012328;28;19945;-74
2023/04/04 02:51:58;;;;;;;;;;;19.20;38.80;;;;;;5009246;28;19918;-74
2023/04/04 02:54:24;;;;;;;;;;;19.20;38.80;;;;;;5028549;28;19913;-74
2023/04/04 02:56:49;;;;;;;;;;;19.20;38.70;;;;;;5007054;28;19921;-74
2023/04/04 02:59:14;;;;;;;;;;;19.30;38.70;;;;;;5011899;28;19922;-74
2023/04/04 03:01:41;;;;;;;;;;;19.30;38.50;;;;;;5013180;28;20374;-74
2023/04/04 03:04:06;;;;;;;;;;;19.30;38.50;;;;;;5016480;28;19921;-74
2023/04/04 03:06:32;;;;;;;;;;;19.30;38.50;;;;;;5007264;28;19969;-74
2023/04/04 03:08:58;;;;;;;;;;;19.40;38.50;;;;;;5005994;28;20299;-74
2023/04/04 03:11:23;;;;;;;;;;;19.40;38.20;;;;;;5009478;28;19929;-74
2023/04/04 03:13:50;;;;;;;;;;;19.40;38.10;;;;;;4991681;28;19917;-73
2023/04/04 03:16:16;;;;;;;;;;;19.40;38.30;;;;;;5002427;28;20245;-73
2023/04/04 03:18:42;;;;;;;;;;;19.40;38.40;;;;;;5005409;28;19921;-74
2023/04/04 03:21:07;;;;;;;;;;;19.30;38.30;;;;;;4993054;28;19917;-74
2023/04/04 03:23:33;;;;;;;;;;;19.30;38.40;;;;;;4995227;28;19965;-73
2023/04/04 03:25:58;;;;;;;;;;;19.30;38.40;;;;;;5001221;28;20002;-74
2023/04/04 03:28:24;;;;;;;;;;;19.20;38.70;;;;;;5006201;28;19925;-73
2023/04/04 03:30:49;;;;;;;;;;;19.20;38.40;;;;;;5003944;28;19922;-73
2023/04/04 03:33:15;;;;;;;;;;;19.20;38.50;;;;;;5005350;28;20047;-73
2023/04/04 03:35:41;;;;;;;;;;;19.30;38.50;;;;;;5004133;28;19919;-73
2023/04/04 03:38:06;;;;;;;;;;;19.20;38.30;;;;;;5010584;28;20111;-73
2023/04/04 03:40:32;;;;;;;;;;;19.20;38.30;;;;;;5003575;28;19991;-73
2023/04/04 03:42:57;;;;;;;;;;;19.20;38.40;;;;;;4998751;28;19918;-74
2023/04/04 03:45:23;;;;;;;;;;;19.30;38.50;;;;;;5002568;28;20287;-73
2023/04/04 03:47:48;;;;;;;;;;;19.20;38.50;;;;;;4998736;28;19928;-74
2023/04/04 03:50:14;;;;;;;;;;;19.20;38.60;;;;;;5002400;28;20393;-74
2023/04/04 03:52:39;;;;;;;;;;;19.20;38.60;;;;;;5005350;28;19937;-74
2023/04/04 03:55:06;;;;;;;;;;;19.20;38.80;;;;;;5005941;28;19936;-74
2023/04/04 03:57:31;;;;;;;;;;;19.10;39.00;;;;;;4993589;28;19985;-74
2023/04/04 03:59:57;;;;;;;;;;;19.10;38.80;;;;;;4999027;28;19925;-74
2023/04/04 04:02:23;;;;;;;;;;;19.10;38.70;;;;;;4995151;28;19928;-74
2023/04/04 04:04:48;;;;;;;;;;;19.10;39.30;;;;;;5004666;28;19921;-74
2023/04/04 04:07:13;;;;;;;;;;;19.10;38.70;;;;;;5003979;28;19928;-74
2023/04/04 04:09:39;;;;;;;;;;;19.10;38.50;;;;;;5007680;28;19918;-74
2023/04/04 04:12:04;;;;;;;;;;;19.10;38.50;;;;;;5011214;28;19921;-73
2023/04/04 04:14:30;;;;;;;;;;;19.10;38.50;;;;;;5003445;28;20543;-73
2023/04/04 04:16:55;;;;;;;;;;;19.10;38.20;;;;;;5008058;28;19914;-74
2023/04/04 04:19:21;;;;;;;;;;;19.20;38.30;;;;;;5007558;28;19983;-74
2023/04/04 04:21:46;;;;;;;;;;;19.10;38.30;;;;;;5015162;28;19927;-74
2023/04/04 04:24:12;;;;;;;;;;;19.10;38.30;;;;;;4990721;28;19968;-74
2023/04/04 04:26:37;;;;;;;;;;;19.00;38.30;;;;;;5009693;28;19924;-74
2023/04/04 04:29:03;;;;;;;;;;;19.10;38.50;;;;;;5025323;28;19979;-73
2023/04/04 04:31:28;;;;;;;;;;;19.10;38.50;;;;;;4999111;28;19917;-73
2023/04/04 04:33:54;;;;;;;;;;;19.00;38.60;;;;;;5024499;28;20311;-74
2023/04/04 04:36:20;;;;;;;;;;;19.00;38.50;;;;;;5014170;28;19949;-73
2023/04/04 04:38:45;;;;;;;;;;;19.00;38.50;;;;;;5011403;28;20386;-74
2023/04/04 04:41:10;;;;;;;;;;;19.00;38.50;;;;;;5014623;28;20334;-74
2023/04/04 04:43:36;;;;;;;;;;;19.00;38.60;;;;;;5024913;28;19929;-74
2023/04/04 04:46:01;;;;;;;;;;;19.00;38.50;;;;;;5025171;28;19913;-74
2023/04/04 04:48:27;;;;;;;;;;;19.00;38.40;;;;;;5018159;28;20390;-74
2023/04/04 04:50:52;;;;;;;;;;;19.00;38.10;;;;;;5015909;28;20012;-74
2023/04/04 04:53:18;;;;;;;;;;;19.00;38.10;;;;;;5012428;28;19917;-74
2023/04/04 04:55:44;;;;;;;;;;;19.00;38.40;;;;;;4998946;28;19959;-74
2023/04/04 04:58:09;;;;;;;;;;;19.00;38.20;;;;;;5016029;28;19928;-73
2023/04/04 05:00:36;;;;;;;;;;;19.00;38.20;;;;;;4996686;28;20520;-74
2023/04/04 05:03:02;;;;;;;;;;;19.00;38.10;;;;;;5007986;28;19921;-73
2023/04/04 05:05:27;;;;;;;;;;;19.00;38.00;;;;;;5018468;28;19917;-73
2023/04/04 05:07:53;;;;;;;;;;;19.10;38.20;;;;;;5007280;28;19918;-74
2023/04/04 05:10:18;;;;;;;;;;;19.00;38.10;;;;;;5008171;28;19979;-73
2023/04/04 05:12:44;;;;;;;;;;;19.00;38.00;;;;;;5000883;28;19932;-73
2023/04/04 05:15:12;;;;;;;;;;;19.00;38.00;;;;;;5004267;28;19921;-73
2023/04/04 05:17:38;;;;;;;;;;;19.00;38.00;;;;;;5010775;28;19921;-74
2023/04/04 05:20:04;;;;;;;;;;;19.00;37.90;;;;;;5002671;28;20393;-73
2023/04/04 05:22:30;;;;;;;;;;;19.00;38.00;;;;;;5009903;28;19921;-73
2023/04/04 05:24:55;;;;;;;;;;;18.90;38.10;;;;;;5010908;28;19913;-73
2023/04/04 05:27:21;;;;;;;;;;;18.90;38.50;;;;;;5016602;28;19913;-73
2023/04/04 05:29:47;;;;;;;;;;;18.80;38.20;;;;;;5008306;28;19921;-73
2023/04/04 05:32:12;;;;;;;;;;;18.80;38.30;;;;;;5020102;28;20069;-74
2023/04/04 05:34:38;;;;;;;;;;;18.80;38.60;;;;;;5022833;28;20916;-73
2023/04/04 05:37:03;;;;;;;;;;;18.80;38.40;;;;;;5020705;28;20038;-73
2023/04/04 05:39:29;;;;;;;;;;;18.80;38.40;;;;;;5022495;28;20271;-73
2023/04/04 05:41:54;;;;;;;;;;;18.90;38.30;;;;;;5007221;28;19917;-73
2023/04/04 05:44:20;;;;;;;;;;;18.90;38.20;;;;;;5009232;28;20298;-73
2023/04/04 05:46:45;;;;;;;;;;;18.90;38.40;;;;;;5005942;28;19914;-74
2023/04/04 05:49:11;;;;;;;;;;;18.90;38.80;;;;;;4999688;28;20002;-73
2023/04/04 05:51:36;;;;;;;;;;;18.90;38.50;;;;;;5009483;28;20419;-73
2023/04/04 05:54:02;;;;;;;;;;;18.90;38.30;;;;;;5012100;28;19919;-73
2023/04/04 05:56:27;;;;;;;;;;;19.00;38.00;;;;;;5028130;28;19913;-73
2023/04/04 05:58:53;;;;;;;;;;;19.00;38.20;;;;;;5020694;28;20481;-73
2023/04/04 06:01:18;;;;;;;;;;;18.90;38.30;;;;;;5012130;28;20032;-73
2023/04/04 06:03:44;;;;;;;;;;;18.90;38.10;;;;;;5017908;28;19961;-74
2023/04/04 06:06:09;;;;;;;;;;;18.90;38.10;;;;;;5014887;28;20152;-74
2023/04/04 06:08:35;;;;;;;;;;;18.90;38.30;;;;;;5009906;28;19922;-74
2023/04/04 06:11:00;;;;;;;;;;;18.90;38.40;;;;;;5007919;28;19927;-73
2023/04/04 06:13:26;;;;;;;;;;;18.90;38.40;;;;;;5025394;28;19958;-74
2023/04/04 06:15:53;;;;;;;;;;;18.90;38.30;;;;;;5011112;28;21269;-74
2023/04/04 06:18:18;;;;;;;;;;;18.90;38.40;;;;;;5024136;28;20009;-74
2023/04/04 06:20:44;;;;;;;;;;;18.90;38.20;;;;;;5009491;28;19921;-73
2023/04/04 06:23:10;;;;;;;;;;;18.90;38.10;;;;;;5019740;28;19917;-74
2023/04/04 06:25:35;;;;;;;;;;;19.00;38.20;;;;;;5007146;28;19921;-74
2023/04/04 06:28:02;;;;;;;;;;;19.00;38.10;;;;;;5017207;28;20369;-74
2023/04/04 06:30:28;;;;;;;;;;;19.00;38.00;;;;;;5018985;28;19990;-74
2023/04/04 06:32:53;;;;;;;;;;;19.00;38.10;;;;;;4998140;28;19914;-73
2023/04/04 06:35:19;;;;;;;;;;;19.00;38.10;;;;;;5036711;27;19915;-74
2023/04/04 06:37:45;;;;;;;;;;;18.90;38.40;;;;;;5023555;28;20310;-74
2023/04/04 06:40:10;;;;;;;;;;;18.90;38.20;;;;;;5017555;28;19969;-74
2023/04/04 06:42:36;;;;;;;;;;;18.90;38.20;;;;;;5034779;28;20416;-74
2023/04/04 06:45:02;;;;;;;;;;;19.00;38.30;;;;;;5025151;28;20374;-73
2023/04/04 06:47:27;;;;;;;;;;;19.00;38.20;;;;;;5023094;28;19921;-74
2023/04/04 06:49:53;;;;;;;;;;;19.00;38.10;;;;;;5014451;28;19938;-74
2023/04/04 06:52:18;;;;;;;;;;;19.00;38.00;;;;;;5005178;28;20298;-74
2023/04/04 06:54:44;;;;;;;;;;;19.00;38.00;;;;;;5019932;28;19922;-74
2023/04/04 06:57:10;;;;;;;;;;;19.00;38.10;;;;;;4998502;28;19928;-73
2023/04/04 06:59:35;;;;;;;;;;;19.00;38.20;;;;;;5003514;28;20011;-73
2023/04/04 07:02:01;;;;;;;;;;;19.00;38.20;;;;;;5003593;28;20049;-73
2023/04/04 07:04:26;;;;;;;;;;;19.00;38.40;;;;;;5022573;28;19920;-73
2023/04/04 07:06:51;;;;;;;;;;;19.00;38.30;;;;;;5006490;28;19913;-73
2023/04/04 07:09:17;;;;;;;;;;;18.90;38.30;;;;;;4991758;28;19917;-73
2023/04/04 07:11:42;;;;;;;;;;;18.90;38.40;;;;;;5007369;28;19925;-74
2023/04/04 07:14:08;;;;;;;;;;;18.90;38.50;;;;;;5003038;28;20382;-74
2023/04/04 07:16:35;;;;;;;;;;;18.90;38.60;;;;;;5013387;28;19953;-74
2023/04/04 07:19:00;;;;;;;;;;;18.90;38.60;;;;;;5008959;28;20281;-74
2023/04/04 07:21:26;;;;;;;;;;;18.90;38.70;;;;;;5007511;28;19917;-74
2023/04/04 07:23:52;;;;;;;;;;;18.80;38.70;;;;;;5005833;28;19992;-73
2023/04/04 07:26:17;;;;;;;;;;;18.80;38.80;;;;;;5015071;27;20024;-74
2023/04/04 07:28:43;;;;;;;;;;;18.80;39.00;;;;;;5008798;28;20031;-73
2023/04/04 07:31:08;;;;;;;;;;;18.80;38.90;;;;;;5006295;28;19974;-73
2023/04/04 07:33:34;;;;;;;;;;;18.80;38.90;;;;;;5008794;28;19925;-74
2023/04/04 07:35:59;;;;;;;;;;;18.80;38.90;;;;;;4988021;28;19918;-74
2023/04/04 07:38:25;;;;;;;;;;;18.90;38.90;;;;;;5003196;28;20016;-73
2023/04/04 07:40:50;;;;;;;;;;;18.90;38.90;;;;;;5003935;28;19918;-73
2023/04/04 07:43:16;;;;;;;;;;;19.00;39.00;;;;;;5008341;28;19921;-74
2023/04/04 07:45:41;;;;;;;;;;;19.00;39.20;;;;;;5002950;28;19920;-74
2023/04/04 07:48:07;;;;;;;;;;;19.00;39.00;;;;;;5004056;28;19918;-74
2023/04/04 07:50:33;;;;;;;;;;;19.00;39.40;;;;;;5010218;28;19925;-74
2023/04/04 07:52:58;;;;;;;;;;;19.00;39.70;;;;;;5014089;28;20432;-74
2023/04/04 07:55:24;;;;;;;;;;;19.10;39.70;;;;;;5015614;28;20035;-73
2023/04/04 07:57:50;;;;;;;;;;;19.80;38.20;;;;;;5013376;28;19921;-74
2023/04/04 08:00:20;;;;;;;;;;;20.60;37.00;;;;;;5005965;28;19918;-74
2023/04/04 08:02:45;;;;;;;;;;;21.30;36.00;;;;;;4991677;28;19970;-74
2023/04/04 08:05:11;;;;;;;;;;;21.80;35.20;;;;;;5028786;28;20650;-74
2023/04/04 08:07:36;;;;;;;;;;;22.00;34.80;;;;;;5009749;28;19920;-74
2023/04/04 08:10:02;;;;;;;;;;;22.20;34.60;;;;;;4997689;28;19917;-75
2023/04/04 08:12:27;;;;;;;;;;;22.20;34.50;;;;;;5007241;28;19929;-74
2023/04/04 08:14:53;;;;;;;;;;;22.30;34.60;;;;;;5008447;28;20379;-75
2023/04/04 08:17:19;;;;;;;;;;;22.30;34.50;;;;;;4998988;28;20011;-74
2023/04/04 08:19:45;;;;;;;;;;;22.50;34.40;;;;;;5010962;28;19953;-75
2023/04/04 08:22:11;;;;;;;;;;;22.70;34.50;;;;;;5007635;28;19917;-74
2023/04/04 08:24:36;;;;;;;;;;;22.80;34.50;;;;;;5005372;28;20367;-74
2023/04/04 08:27:02;;;;;;;;;;;23.00;34.70;;;;;;5012341;28;19919;-74
2023/04/04 08:29:28;;;;;;;;;;;23.10;34.80;;;;;;5012451;28;19924;-74
2023/04/04 08:31:53;;;;;;;;;;;23.20;34.80;;;;;;5016509;27;20597;-74
2023/04/04 08:34:19;;;;;;;;;;;23.30;34.70;;;;;;5006571;28;19914;-74
2023/04/04 08:36:45;;;;;;;;;;;23.30;34.40;;;;;;5013922;28;19913;-74
2023/04/04 08:39:10;;;;;;;;;;;23.40;34.30;;;;;;5006572;28;20299;-74
2023/04/04 08:41:36;;;;;;;;;;;23.40;34.50;;;;;;4998100;28;19913;-75
2023/04/04 08:44:03;;;;;;;;;;;23.40;34.50;;;;;;5007410;28;19913;-75
2023/04/04 08:46:28;;;;;;;;;;;23.40;34.80;;;;;;5012995;28;20556;-74
2023/04/04 08:48:54;;;;;;;;;;;23.40;34.80;;;;;;5020162;28;20005;-74
2023/04/04 08:51:19;;;;;;;;;;;23.40;34.90;;;;;;5007312;28;19991;-74
2023/04/04 08:53:45;;;;;;;;;;;23.30;35.10;;;;;;5001647;28;19963;-75
2023/04/04 08:56:11;;;;;;;;;;;23.20;35.20;;;;;;5012477;28;19917;-74
2023/04/04 08:58:39;;;;;;;;;;;23.20;35.40;;;;;;5009410;28;19979;-75
2023/04/04 09:01:05;;;;;;;;;;;23.10;36.00;;;;;;4989777;28;19956;-74
2023/04/04 09:03:33;;;;;;;;;;;23.00;35.90;;;;;;5004417;28;19983;-74
2023/04/04 09:05:58;;;;;;;;;;;22.80;35.90;;;;;;5006978;28;19921;-74
2023/04/04 09:08:24;;;;;;;;;;;22.70;36.30;;;;;;4995461;28;20434;-75
2023/04/04 09:10:50;;;;;;;;;;;22.60;36.40;;;;;;5007282;28;20015;-74
2023/04/04 09:13:16;;;;;;;;;;;22.70;36.50;;;;;;5007870;28;20824;-74
2023/04/04 09:15:43;;;;;;;;;;;22.80;36.30;;;;;;5007519;28;19952;-74
2023/04/04 09:18:08;;;;;;;;;;;22.90;36.30;;;;;;5009429;28;20005;-74
2023/04/04 09:20:37;;;;;;;;;;;23.00;36.10;;;;;;5011637;28;20583;-74
2023/04/04 09:23:07;;;;;;;;;;;23.00;36.70;;;;;;5012225;28;21539;-74
2023/04/04 09:25:32;;;;;;;;;;;23.10;36.70;;;;;;5021759;28;19921;-75
2023/04/04 09:27:58;;;;;;;;;;;23.20;36.70;;;;;;5025728;28;19913;-74
2023/04/04 09:30:24;;;;;;;;;;;23.20;36.10;;;;;;5023497;28;19913;-74
2023/04/04 09:32:50;;;;;;;;;;;23.10;36.00;;;;;;5010663;27;19972;-77
2023/04/04 09:35:15;;;;;;;;;;;23.10;36.00;;;;;;5007725;28;20329;-75
2023/04/04 09:37:41;;;;;;;;;;;23.10;36.10;;;;;;5087954;27;19951;-75
2023/04/04 09:40:09;;;;;;;;;;;23.10;36.00;;;;;;4994979;28;20513;-74
2023/04/04 09:42:35;;;;;;;;;;;23.20;36.10;;;;;;4996135;28;19913;-74
2023/04/04 09:45:01;;;;;;;;;;;23.20;36.10;;;;;;4996483;28;19927;-74
2023/04/04 09:47:27;;;;;;;;;;;23.20;36.10;;;;;;5004357;28;19921;-74
2023/04/04 09:49:53;;;;;;;;;;;23.30;36.20;;;;;;5005946;28;19978;-74
2023/04/04 09:52:19;;;;;;;;;;;23.30;36.20;;;;;;5010668;28;19926;-74
2023/04/04 09:54:53;;;;;;;;;;;23.30;36.20;;;;;;5012588;27;20335;-74
2023/04/04 09:57:19;;;;;;;;;;;23.30;36.10;;;;;;5001058;28;19913;-75
2023/04/04 09:59:45;;;;;;;;;;;23.30;36.20;;;;;;4996085;28;20008;-75
2023/04/04 10:02:11;;;;;;;;;;;23.20;36.10;;;;;;5010093;28;19937;-75
2023/04/04 10:04:36;;;;;;;;;;;23.30;36.20;;;;;;5008548;28;20059;-75
2023/04/04 10:07:02;;;;;;;;;;;23.30;36.20;;;;;;5003529;28;19914;-74
2023/04/04 10:09:27;;;;;;;;;;;23.30;36.10;;;;;;5008155;28;19917;-74
2023/04/04 10:12:07;;;;;;;;;;;23.20;36.10;;;;;;5010910;28;19972;-74
2023/04/04 10:14:35;;;;;;;;;;;23.30;36.10;;;;;;5008578;28;19913;-73
2023/04/04 10:17:10;;;;;;;;;;;23.40;36.00;;;;;;5008089;28;19921;-74
2023/04/04 10:19:36;;;;;;;;;;;23.30;36.00;;;;;;5009085;28;19960;-73
2023/04/04 10:22:03;;;;;;;;;;;23.30;35.90;;;;;;5006572;28;19983;-74
2023/04/04 10:24:28;;;;;;;;;;;23.20;36.10;;;;;;5009996;28;19917;-74
2023/04/04 10:26:54;;;;;;;;;;;23.30;36.00;;;;;;5001387;28;19921;-74
2023/04/04 10:29:20;;;;;;;;;;;23.30;35.90;;;;;;5000353;28;20367;-74
2023/04/04 10:31:46;;;;;;;;;;;23.40;36.00;;;;;;5026668;27;20287;-74
2023/04/04 10:34:23;;;;;;;;;;;23.40;36.00;;;;;;4998185;28;20901;-74
2023/04/04 10:36:49;;;;;;;;;;;23.50;35.90;;;;;;5009379;28;19913;-73
2023/04/04 10:39:33;;;;;;;;;;;23.50;35.90;;;;;;5017684;28;20337;-75
2023/04/04 10:41:59;;;;;;;;;;;23.50;35.90;;;;;;5011172;28;19945;-73
2023/04/04 10:44:36;;;;;;;;;;;23.50;35.80;;;;;;5016184;28;19953;-73
2023/04/04 10:47:20;;;;;;;;;;;23.40;36.00;;;;;;5020680;28;19945;-73
2023/04/04 10:49:46;;;;;;;;;;;23.20;36.10;;;;;;5004826;28;19913;-74
2023/04/04 10:52:18;;;;;;;;;;;23.20;36.30;;;;;;5021277;28;20404;-74
2023/04/04 10:54:44;;;;;;;;;;;23.20;36.30;;;;;;5027459;27;20273;-74
2023/04/04 10:57:09;;;;;;;;;;;23.20;36.30;;;;;;5006920;28;20959;-73
2023/04/04 10:59:54;;;;;;;;;;;23.20;36.30;;;;;;5007970;28;19917;-73
2023/04/04 11:02:27;;;;;;;;;;;23.20;36.30;;;;;;5018750;27;19917;-74
2023/04/04 11:04:54;;;;;;;;;;;23.20;36.10;;;;;;5016707;28;19921;-73
2023/04/04 11:07:19;;;;;;;;;;;23.40;36.10;;;;;;4998707;28;19955;-73
2023/04/04 11:09:52;;;;;;;;;;;23.40;35.90;;;;;;5002348;28;19913;-73
2023/04/04 11:12:22;;;;;;;;;;;23.40;35.90;;;;;;4998900;28;20059;-73
2023/04/04 11:14:55;;;;;;;;;;;23.50;36.10;;;;;;5008234;28;19918;-73
2023/04/04 11:17:41;;;;;;;;;;;23.60;36.00;;;;;;4991842;28;20020;-74
2023/04/04 11:20:07;;;;;;;;;;;23.60;35.80;;;;;;5008319;28;20004;-74
2023/04/04 11:22:35;;;;;;;;;;;23.60;35.70;;;;;;5008288;28;19921;-74
2023/04/04 11:25:20;;;;;;;;;;;23.60;35.80;;;;;;5010541;28;19920;-74
2023/04/04 11:27:46;;;;;;;;;;;23.40;36.20;;;;;;5008976;28;19949;-74
2023/04/04 11:30:15;;;;;;;;;;;23.10;36.60;;;;;;5006486;28;19921;-73
2023/04/04 11:32:41;;;;;;;;;;;23.00;36.70;;;;;;5005577;28;19917;-73
2023/04/04 11:35:07;;;;;;;;;;;23.10;36.60;;;;;;5008115;28;19932;-73
2023/04/04 11:37:33;;;;;;;;;;;23.20;36.30;;;;;;5006157;28;19918;-73
2023/04/04 11:39:59;;;;;;;;;;;23.20;36.30;;;;;;5004690;28;19917;-73
2023/04/04 11:42:24;;;;;;;;;;;23.00;36.50;;;;;;5002309;28;19955;-73
2023/04/04 11:44:53;;;;;;;;;;;22.90;36.90;;;;;;4991439;28;19933;-74
2023/04/04 11:47:19;;;;;;;;;;;22.90;37.00;;;;;;5006029;28;19914;-73
2023/04/04 11:49:45;;;;;;;;;;;23.00;36.80;;;;;;5003293;28;19947;-74
2023/04/04 11:52:12;;;;;;;;;;;23.20;36.40;;;;;;5007199;28;20012;-74
2023/04/04 11:54:38;;;;;;;;;;;23.40;36.30;;;;;;4989195;28;19917;-73
2023/04/04 11:57:08;;;;;;;;;;;23.50;35.90;;;;;;4992049;28;19997;-73
2023/04/04 11:59:37;;;;;;;;;;;23.70;35.50;;;;;;5012811;28;19917;-74
2023/04/04 12:02:03;;;;;;;;;;;23.90;35.40;;;;;;5004679;28;19921;-73
2023/04/04 12:04:28;;;;;;;;;;;24.00;35.00;;;;;;5012898;28;19971;-74
2023/04/04 12:06:54;;;;;;;;;;;24.20;34.70;;;;;;5011779;28;19928;-74
2023/04/04 12:09:19;;;;;;;;;;;24.30;34.50;;;;;;5004009;28;19993;-74
2023/04/04 12:11:48;;;;;;;;;;;24.40;34.50;;;;;;5006724;28;19962;-74
2023/04/04 12:14:17;;;;;;;;;;;24.30;34.50;;;;;;5005694;28;19921;-74
2023/04/04 12:16:43;;;;;;;;;;;24.30;34.60;;;;;;5003982;28;19917;-74
2023/04/04 12:19:09;;;;;;;;;;;24.20;35.00;;;;;;5005891;28;19921;-74
2023/04/04 12:21:35;;;;;;;;;;;24.10;35.00;;;;;;5002225;28;19914;-74
2023/04/04 12:24:00;;;;;;;;;;;24.10;35.20;;;;;;5010420;28;19928;-75
2023/04/04 12:26:28;;;;;;;;;;;24.10;35.20;;;;;;5010409;28;19913;-74
2023/04/04 12:28:57;;;;;;;;;;;24.10;35.30;;;;;;5015320;28;19945;-74
2023/04/04 12:31:23;;;;;;;;;;;24.00;35.40;;;;;;5020929;28;19917;-74
2023/04/04 12:33:50;;;;;;;;;;;24.10;35.50;;;;;;5010815;28;19921;-74
2023/04/04 12:36:16;;;;;;;;;;;24.10;35.40;;;;;;5013613;28;20046;-74
2023/04/04 12:39:00;;;;;;;;;;;24.10;35.40;;;;;;5007027;28;19974;-74
2023/04/04 12:41:26;;;;;;;;;;;24.00;35.50;;;;;;5014964;28;19914;-74
2023/04/04 12:43:58;;;;;;;;;;;24.00;35.60;;;;;;4991830;28;19922;-73
2023/04/04 12:46:27;;;;;;;;;;;23.90;35.70;;;;;;4995322;28;19914;-73
2023/04/04 12:48:53;;;;;;;;;;;23.90;35.60;;;;;;5007722;28;19913;-74
2023/04/04 12:51:19;;;;;;;;;;;24.00;35.60;;;;;;5018141;28;19917;-73
2023/04/04 12:53:55;;;;;;;;;;;24.00;35.60;;;;;;5029037;28;19940;-73
2023/04/04 12:56:20;;;;;;;;;;;24.00;35.60;;;;;;5026694;28;19913;-73
2023/04/04 12:58:49;;;;;;;;;;;24.00;35.50;;;;;;5022032;28;19920;-73
2023/04/04 13:01:15;;;;;;;;;;;24.00;35.60;;;;;;5013383;28;19920;-73
2023/04/04 13:03:40;;;;;;;;;;;24.00;35.60;;;;;;5007347;28;19922;-73
2023/04/04 13:06:15;;;;;;;;;;;24.00;35.70;;;;;;5020568;28;19913;-73
2023/04/04 13:08:50;;;;;;;;;;;24.00;35.60;;;;;;5013757;28;19914;-73
2023/04/04 13:11:16;;;;;;;;;;;24.10;35.40;;;;;;5000339;28;19925;-74
2023/04/04 13:13:42;;;;;;;;;;;24.00;35.30;;;;;;5028818;28;19925;-73
2023/04/04 13:16:08;;;;;;;;;;;24.00;35.30;;;;;;4998078;28;19963;-73
2023/04/04 13:18:38;;;;;;;;;;;24.10;35.10;;;;;;5012377;28;19917;-73
2023/04/04 13:21:04;;;;;;;;;;;24.30;35.00;;;;;;5015715;28;19917;-73
2023/04/04 13:23:29;;;;;;;;;;;24.40;34.70;;;;;;5007111;28;19913;-73
2023/04/04 13:25:57;;;;;;;;;;;24.50;34.70;;;;;;5025260;28;19992;-74
2023/04/04 13:28:23;;;;;;;;;;;24.50;34.80;;;;;;5019264;28;20496;-73
2023/04/04 13:30:48;;;;;;;;;;;24.50;34.80;;;;;;5020114;28;19975;-73
2023/04/04 13:33:17;;;;;;;;;;;24.40;34.90;;;;;;5019046;27;19918;-73
2023/04/04 13:35:45;;;;;;;;;;;24.40;35.10;;;;;;5019690;28;20343;-72
2023/04/04 13:38:11;;;;;;;;;;;24.20;35.20;;;;;;5021004;28;20283;-73
2023/04/04 13:40:36;;;;;;;;;;;24.10;35.60;;;;;;5020468;28;20001;-73
2023/04/04 13:43:02;;;;;;;;;;;23.90;35.70;;;;;;5020911;28;19956;-75
2023/04/04 13:45:27;;;;;;;;;;;23.80;35.80;;;;;;5002356;28;20311;-74
2023/04/04 13:47:53;;;;;;;;;;;23.80;36.00;;;;;;5011708;28;19917;-73
2023/04/04 13:50:18;;;;;;;;;;;23.90;36.10;;;;;;5022509;28;19921;-74
2023/04/04 13:52:43;;;;;;;;;;;24.00;36.00;;;;;;5006901;28;19926;-73
2023/04/04 13:55:09;;;;;;;;;;;24.00;35.70;;;;;;5018507;28;19919;-73
2023/04/04 13:57:35;;;;;;;;;;;24.10;35.50;;;;;;5020091;28;19914;-73
2023/04/04 14:00:00;;;;;;;;;;;24.30;35.10;;;;;;5019447;28;19960;-73
2023/04/04 14:02:26;;;;;;;;;;;24.40;35.10;;;;;;5008921;28;19921;-73
2023/04/04 14:04:51;;;;;;;;;;;24.50;34.90;;;;;;5030821;28;19978;-73
2023/04/04 14:07:17;;;;;;;;;;;24.60;34.70;;;;;;5001655;28;19921;-71
2023/04/04 14:09:43;;;;;;;;;;;24.60;34.60;;;;;;5013944;28;20872;-74
2023/04/04 14:12:08;;;;;;;;;;;24.70;34.60;;;;;;5015325;28;19925;-74